sensor_id;sensor_type;location;lat;lon;timestamp;pressure;altitude;pressure_sealevel;temperature;humidity
48778;BME280;34578;0.000;0.000;2023-06-10T00:02:54;96202.88;;;19.80;58.21
48778;BME280;34578;0.000;0.000;2023-06-10T00:07:54;96199.47;;;19.80;58.49
48778;BME280;34578;0.000;0.000;2023-06-10T00:12:55;96201.81;;;19.95;59.26
48778;BME280;34578;0.000;0.000;2023-06-10T00:17:56;96202.47;;;20.10;58.70
48778;BME280;34578;0.000;0.000;2023-06-10T00:22:58;96202.63;;;19.98;58.81
48778;BME280;34578;0.000;0.000;2023-06-10T00:27:59;96206.09;;;19.91;58.73
48778;BME280;34578;0.000;0.000;2023-06-10T00:33:02;96201.06;;;19.87;58.59
48778;BME280;34578;0.000;0.000;2023-06-10T00:38:02;96198.59;;;19.84;58.45
48778;BME280;34578;0.000;0.000;2023-06-10T00:43:02;96208.75;;;19.82;58.45
48778;BME280;34578;0.000;0.000;2023-06-10T00:48:03;96206.22;;;19.82;58.21
48778;BME280;34578;0.000;0.000;2023-06-10T00:53:04;96203.69;;;19.81;58.24
48778;BME280;34578;0.000;0.000;2023-06-10T00:58:07;96202.88;;;19.80;58.31
48778;BME280;34578;0.000;0.000;2023-06-10T01:03:07;96207.09;;;19.80;58.09
48778;BME280;34578;0.000;0.000;2023-06-10T01:08:19;96213.59;;;19.99;59.16
48778;BME280;34578;0.000;0.000;2023-06-10T01:13:30;96212.63;;;20.10;58.56
48778;BME280;34578;0.000;0.000;2023-06-10T01:18:31;96212.03;;;19.92;58.64
48778;BME280;34578;0.000;0.000;2023-06-10T01:23:32;96223.06;;;19.89;58.73
48778;BME280;34578;0.000;0.000;2023-06-10T01:28:44;96212.09;;;19.86;58.71
48778;BME280;34578;0.000;0.000;2023-06-10T01:33:51;96224.00;;;19.84;58.41
48778;BME280;34578;0.000;0.000;2023-06-10T01:38:53;96224.88;;;19.81;58.07
48778;BME280;34578;0.000;0.000;2023-06-10T01:43:54;96230.81;;;19.79;58.15
48778;BME280;34578;0.000;0.000;2023-06-10T01:48:55;96225.75;;;19.79;58.22
48778;BME280;34578;0.000;0.000;2023-06-10T01:53:56;96235.91;;;19.79;57.97
48778;BME280;34578;0.000;0.000;2023-06-10T01:58:56;96232.47;;;19.83;59.72
48778;BME280;34578;0.000;0.000;2023-06-10T02:03:59;96236.47;;;20.00;59.07
48778;BME280;34578;0.000;0.000;2023-06-10T02:08:59;96235.53;;;20.09;58.36
48778;BME280;34578;0.000;0.000;2023-06-10T02:14:02;96236.53;;;19.94;58.64
48778;BME280;34578;0.000;0.000;2023-06-10T02:19:05;96245.94;;;19.89;58.01
48778;BME280;34578;0.000;0.000;2023-06-10T02:24:07;96241.72;;;19.85;58.44
48778;BME280;34578;0.000;0.000;2023-06-10T02:29:09;96239.25;;;19.84;58.43
48778;BME280;34578;0.000;0.000;2023-06-10T02:34:10;96235.84;;;19.82;58.25
48778;BME280;34578;0.000;0.000;2023-06-10T02:39:13;96223.25;;;19.74;58.11
48778;BME280;34578;0.000;0.000;2023-06-10T02:44:14;96233.31;;;19.82;58.36
48778;BME280;34578;0.000;0.000;2023-06-10T02:49:15;96236.69;;;19.82;58.18
48778;BME280;34578;0.000;0.000;2023-06-10T02:54:16;96232.44;;;19.86;60.90
48778;BME280;34578;0.000;0.000;2023-06-10T02:59:18;96231.34;;;20.05;58.60
48778;BME280;34578;0.000;0.000;2023-06-10T03:04:18;96241.50;;;20.06;58.17
48778;BME280;34578;0.000;0.000;2023-06-10T03:09:29;96245.03;;;19.93;58.75
48778;BME280;34578;0.000;0.000;2023-06-10T03:14:31;96250.19;;;19.87;58.32
48778;BME280;34578;0.000;0.000;2023-06-10T03:19:32;96256.97;;;19.85;58.18
48778;BME280;34578;0.000;0.000;2023-06-10T03:24:33;96252.81;;;19.83;58.28
48778;BME280;34578;0.000;0.000;2023-06-10T03:29:34;96246.06;;;19.79;57.70
48778;BME280;34578;0.000;0.000;2023-06-10T03:34:35;96261.31;;;19.79;58.07
48778;BME280;34578;0.000;0.000;2023-06-10T03:39:36;96270.59;;;19.80;58.64
48778;BME280;34578;0.000;0.000;2023-06-10T03:44:37;96264.69;;;19.79;57.96
48778;BME280;34578;0.000;0.000;2023-06-10T03:49:39;96267.06;;;19.90;59.51
48778;BME280;34578;0.000;0.000;2023-06-10T03:54:41;96270.28;;;20.07;58.54
48778;BME280;34578;0.000;0.000;2023-06-10T03:59:41;96269.47;;;20.02;58.62
48778;BME280;34578;0.000;0.000;2023-06-10T04:04:42;96273.88;;;19.91;58.54
48778;BME280;34578;0.000;0.000;2023-06-10T04:09:43;96270.53;;;19.86;58.34
48778;BME280;34578;0.000;0.000;2023-06-10T04:14:43;96266.38;;;19.80;58.15
48778;BME280;34578;0.000;0.000;2023-06-10T04:19:46;96281.56;;;19.82;58.07
48778;BME280;34578;0.000;0.000;2023-06-10T04:24:46;96277.41;;;19.78;57.94
48778;BME280;34578;0.000;0.000;2023-06-10T04:29:47;96283.31;;;19.80;57.65
48778;BME280;34578;0.000;0.000;2023-06-10T04:34:48;96286.69;;;19.79;58.16
48778;BME280;34578;0.000;0.000;2023-06-10T04:39:49;96285.03;;;19.78;57.85
48778;BME280;34578;0.000;0.000;2023-06-10T04:44:50;96289.94;;;19.90;59.09
48778;BME280;34578;0.000;0.000;2023-06-10T04:49:50;96276.31;;;19.98;58.21
48778;BME280;34578;0.000;0.000;2023-06-10T04:54:51;96294.91;;;20.02;58.58
48778;BME280;34578;0.000;0.000;2023-06-10T04:59:52;96295.88;;;19.92;58.69
48778;BME280;34578;0.000;0.000;2023-06-10T05:04:53;96296.75;;;19.86;58.35
48778;BME280;34578;0.000;0.000;2023-06-10T05:09:55;96299.41;;;19.79;58.20
48778;BME280;34578;0.000;0.000;2023-06-10T05:14:55;96303.63;;;19.81;58.05
48778;BME280;34578;0.000;0.000;2023-06-10T05:19:56;96309.56;;;19.80;58.01
48778;BME280;34578;0.000;0.000;2023-06-10T05:24:56;96307.03;;;19.79;58.23
48778;BME280;34578;0.000;0.000;2023-06-10T05:29:57;96317.19;;;19.80;57.89
48778;BME280;34578;0.000;0.000;2023-06-10T05:34:57;96314.66;;;19.79;57.85
48778;BME280;34578;0.000;0.000;2023-06-10T05:39:57;96321.28;;;19.92;58.71
48778;BME280;34578;0.000;0.000;2023-06-10T05:44:58;96320.22;;;20.09;58.14
48778;BME280;34578;0.000;0.000;2023-06-10T05:49:58;96316.94;;;20.00;58.43
48778;BME280;34578;0.000;0.000;2023-06-10T05:54:58;96315.34;;;19.90;58.44
48778;BME280;34578;0.000;0.000;2023-06-10T05:59:59;96311.19;;;19.86;58.13
48778;BME280;34578;0.000;0.000;2023-06-10T06:05:00;96315.44;;;19.84;58.11
48778;BME280;34578;0.000;0.000;2023-06-10T06:10:00;96310.38;;;19.81;58.06
48778;BME280;34578;0.000;0.000;2023-06-10T06:15:00;96312.91;;;19.82;58.06
48778;BME280;34578;0.000;0.000;2023-06-10T06:20:02;96308.69;;;19.81;57.87
48778;BME280;34578;0.000;0.000;2023-06-10T06:25:02;96300.22;;;19.81;57.86
48778;BME280;34578;0.000;0.000;2023-06-10T06:30:03;96307.03;;;19.80;57.78
48778;BME280;34578;0.000;0.000;2023-06-10T06:35:04;96306.84;;;19.94;59.27
48778;BME280;34578;0.000;0.000;2023-06-10T06:40:08;96300.72;;;20.11;58.06
48778;BME280;34578;0.000;0.000;2023-06-10T06:45:09;96305.06;;;19.99;58.54
48778;BME280;34578;0.000;0.000;2023-06-10T06:50:09;96313.66;;;19.90;58.27
48778;BME280;34578;0.000;0.000;2023-06-10T06:55:10;96317.94;;;19.87;58.34
48778;BME280;34578;0.000;0.000;2023-06-10T07:00:10;96317.94;;;19.85;58.40
48778;BME280;34578;0.000;0.000;2023-06-10T07:05:11;96315.44;;;19.84;58.15
48778;BME280;34578;0.000;0.000;2023-06-10T07:10:11;96305.28;;;19.84;58.29
48778;BME280;34578;0.000;0.000;2023-06-10T07:15:12;96306.97;;;19.82;57.96
48778;BME280;34578;0.000;0.000;2023-06-10T07:20:12;96302.75;;;19.82;58.07
48778;BME280;34578;0.000;0.000;2023-06-10T07:25:13;96298.53;;;19.83;57.85
48778;BME280;34578;0.000;0.000;2023-06-10T07:30:13;96305.94;;;19.99;58.85
48778;BME280;34578;0.000;0.000;2023-06-10T07:35:14;96298.16;;;20.13;58.20
48778;BME280;34578;0.000;0.000;2023-06-10T07:40:14;96305.91;;;20.01;58.63
48778;BME280;34578;0.000;0.000;2023-06-10T07:45:15;96295.88;;;19.92;58.74
48778;BME280;34578;0.000;0.000;2023-06-10T07:50:15;96299.28;;;19.88;58.42
48778;BME280;34578;0.000;0.000;2023-06-10T07:55:18;96295.13;;;19.84;58.49
48778;BME280;34578;0.000;0.000;2023-06-10T08:00:19;96293.44;;;19.83;58.28
48778;BME280;34578;0.000;0.000;2023-06-10T08:05:19;96291.72;;;19.83;58.11
48778;BME280;34578;0.000;0.000;2023-06-10T08:10:20;96301.88;;;19.85;58.22
48778;BME280;34578;0.000;0.000;2023-06-10T08:15:21;96307.81;;;19.84;58.02
48778;BME280;34578;0.000;0.000;2023-06-10T08:20:21;96301.03;;;19.84;58.44
48778;BME280;34578;0.000;0.000;2023-06-10T08:25:22;96300.78;;;20.02;59.26
48778;BME280;34578;0.000;0.000;2023-06-10T08:30:22;96300.69;;;20.14;58.30
48778;BME280;34578;0.000;0.000;2023-06-10T08:35:23;96298.25;;;20.02;58.78
48778;BME280;34578;0.000;0.000;2023-06-10T08:40:23;96302.59;;;19.96;58.93
48778;BME280;34578;0.000;0.000;2023-06-10T08:45:29;96301.81;;;19.91;58.78
48778;BME280;34578;0.000;0.000;2023-06-10T08:50:34;96299.28;;;19.91;58.75
48778;BME280;34578;0.000;0.000;2023-06-10T08:55:44;96302.66;;;19.90;58.65
48778;BME280;34578;0.000;0.000;2023-06-10T09:00:46;96301.81;;;19.91;58.68
48778;BME280;34578;0.000;0.000;2023-06-10T09:05:48;96298.44;;;19.89;58.63
48778;BME280;34578;0.000;0.000;2023-06-10T09:10:48;96294.19;;;19.89;58.71
48778;BME280;34578;0.000;0.000;2023-06-10T09:15:49;96295.88;;;19.90;59.81
48778;BME280;34578;0.000;0.000;2023-06-10T09:20:51;96290.59;;;20.08;59.30
48778;BME280;34578;0.000;0.000;2023-06-10T09:25:58;96293.03;;;20.16;58.98
48778;BME280;34578;0.000;0.000;2023-06-10T09:31:05;96295.72;;;20.02;59.17
48778;BME280;34578;0.000;0.000;2023-06-10T09:36:07;96289.88;;;19.96;59.07
48778;BME280;34578;0.000;0.000;2023-06-10T09:41:07;96284.84;;;19.93;58.91
48778;BME280;34578;0.000;0.000;2023-06-10T09:46:18;96290.78;;;19.92;58.88
48778;BME280;34578;0.000;0.000;2023-06-10T09:51:19;96286.56;;;19.91;58.69
48778;BME280;34578;0.000;0.000;2023-06-10T09:56:19;96289.13;;;19.91;58.71
48778;BME280;34578;0.000;0.000;2023-06-10T10:01:20;96293.34;;;19.89;58.83
48778;BME280;34578;0.000;0.000;2023-06-10T10:06:22;96279.03;;;19.83;58.71
48778;BME280;34578;0.000;0.000;2023-06-10T10:11:23;96290.75;;;19.93;61.70
48778;BME280;34578;0.000;0.000;2023-06-10T10:16:36;96284.63;;;20.11;58.88
48778;BME280;34578;0.000;0.000;2023-06-10T10:21:45;96283.75;;;20.13;58.78
48778;BME280;34578;0.000;0.000;2023-06-10T10:26:50;96277.97;;;20.01;59.21
48778;BME280;34578;0.000;0.000;2023-06-10T10:31:51;96283.97;;;19.95;59.11
48778;BME280;34578;0.000;0.000;2023-06-10T10:36:54;96279.75;;;19.93;58.79
48778;BME280;34578;0.000;0.000;2023-06-10T10:41:55;96282.31;;;19.93;58.90
48778;BME280;34578;0.000;0.000;2023-06-10T10:47:02;96272.13;;;19.93;58.86
48778;BME280;34578;0.000;0.000;2023-06-10T10:52:03;96286.56;;;19.91;58.55
48778;BME280;34578;0.000;0.000;2023-06-10T11:02:09;96278.09;;;19.89;58.67
48778;BME280;34578;0.000;0.000;2023-06-10T11:07:10;96261.06;;;19.98;59.77
48778;BME280;34578;0.000;0.000;2023-06-10T11:12:10;96271.88;;;20.15;59.40
48778;BME280;34578;0.000;0.000;2023-06-10T11:17:18;96272.78;;;20.10;60.40
48778;BME280;34578;0.000;0.000;2023-06-10T11:22:19;96274.53;;;20.08;60.64
48778;BME280;34578;0.000;0.000;2023-06-10T11:27:21;96261.94;;;19.96;59.97
48778;BME280;34578;0.000;0.000;2023-06-10T11:32:24;96263.59;;;20.00;60.93
48778;BME280;34578;0.000;0.000;2023-06-10T11:37:25;96252.56;;;19.99;60.49
48778;BME280;34578;0.000;0.000;2023-06-10T11:42:26;96250.88;;;20.00;60.48
48778;BME280;34578;0.000;0.000;2023-06-10T11:47:26;96258.38;;;20.10;61.83
48778;BME280;34578;0.000;0.000;2023-06-10T11:52:30;96251.81;;;19.93;61.25
48778;BME280;34578;0.000;0.000;2023-06-10T11:57:38;96254.88;;;20.19;61.63
48778;BME280;34578;0.000;0.000;2023-06-10T12:02:38;96257.22;;;20.34;60.31
48778;BME280;34578;0.000;0.000;2023-06-10T12:07:38;96249.75;;;20.22;60.91
48778;BME280;34578;0.000;0.000;2023-06-10T12:12:39;96256.66;;;20.12;60.68
48778;BME280;34578;0.000;0.000;2023-06-10T12:17:42;96255.00;;;20.10;60.57
48778;BME280;34578;0.000;0.000;2023-06-10T12:22:43;96248.28;;;20.03;60.39
48778;BME280;34578;0.000;0.000;2023-06-10T12:27:51;96242.34;;;20.02;60.30
48778;BME280;34578;0.000;0.000;2023-06-10T12:32:53;96243.19;;;20.03;60.26
48778;BME280;34578;0.000;0.000;2023-06-10T12:38:02;96241.53;;;20.02;60.68
48778;BME280;34578;0.000;0.000;2023-06-10T12:43:06;96236.44;;;20.02;60.50
48778;BME280;34578;0.000;0.000;2023-06-10T12:48:23;96247.38;;;20.10;61.41
48778;BME280;34578;0.000;0.000;2023-06-10T12:53:25;96238.56;;;20.32;60.56
48778;BME280;34578;0.000;0.000;2023-06-10T12:58:28;96233.41;;;20.38;59.71
48778;BME280;34578;0.000;0.000;2023-06-10T13:03:28;96236.22;;;20.20;59.95
48778;BME280;34578;0.000;0.000;2023-06-10T13:08:29;96222.78;;;20.12;60.18
48778;BME280;34578;0.000;0.000;2023-06-10T13:13:29;96229.59;;;20.10;60.37
48778;BME280;34578;0.000;0.000;2023-06-10T13:18:30;96223.59;;;20.14;61.57
48778;BME280;34578;0.000;0.000;2023-06-10T13:23:30;96219.22;;;20.23;62.71
48778;BME280;34578;0.000;0.000;2023-06-10T13:28:31;96216.38;;;20.42;61.67
48778;BME280;34578;0.000;0.000;2023-06-10T13:33:32;96214.66;;;20.44;61.07
48778;BME280;34578;0.000;0.000;2023-06-10T13:38:32;96208.13;;;20.29;61.21
48778;BME280;34578;0.000;0.000;2023-06-10T13:43:32;96202.28;;;20.22;61.08
48778;BME280;34578;0.000;0.000;2023-06-10T13:48:33;96205.44;;;20.36;61.46
48778;BME280;34578;0.000;0.000;2023-06-10T13:53:33;96187.47;;;20.46;59.99
48778;BME280;34578;0.000;0.000;2023-06-10T13:58:34;96187.66;;;20.36;60.60
48778;BME280;34578;0.000;0.000;2023-06-10T14:03:39;96185.22;;;20.30;61.54
48778;BME280;34578;0.000;0.000;2023-06-10T14:08:39;96184.50;;;20.21;61.12
48778;BME280;34578;0.000;0.000;2023-06-10T14:13:40;96188.44;;;20.41;60.57
48778;BME280;34578;0.000;0.000;2023-06-10T14:18:40;96184.06;;;20.47;60.28
48778;BME280;34578;0.000;0.000;2023-06-10T14:23:40;96179.25;;;20.33;60.41
48778;BME280;34578;0.000;0.000;2023-06-10T14:28:41;96175.16;;;20.23;60.41
48778;BME280;34578;0.000;0.000;2023-06-10T14:33:42;96174.34;;;20.19;61.53
48778;BME280;34578;0.000;0.000;2023-06-10T14:38:43;96160.38;;;20.45;60.23
48778;BME280;34578;0.000;0.000;2023-06-10T14:43:44;96164.66;;;20.45;60.02
48778;BME280;34578;0.000;0.000;2023-06-10T14:48:44;96163.94;;;20.36;60.41
48778;BME280;34578;0.000;0.000;2023-06-10T14:53:44;96159.75;;;20.32;62.01
48778;BME280;34578;0.000;0.000;2023-06-10T14:58:45;96151.31;;;20.30;63.21
48778;BME280;34578;0.000;0.000;2023-06-10T15:03:46;96164.56;;;20.49;60.60
48778;BME280;34578;0.000;0.000;2023-06-10T15:08:46;96146.81;;;20.46;62.19
48778;BME280;34578;0.000;0.000;2023-06-10T15:13:48;96143.59;;;20.36;61.00
48778;BME280;34578;0.000;0.000;2023-06-10T15:18:48;96142.03;;;20.27;60.63
48778;BME280;34578;0.000;0.000;2023-06-10T15:23:49;96137.78;;;20.29;63.02
48778;BME280;34578;0.000;0.000;2023-06-10T15:28:50;96137.41;;;20.50;60.62
48778;BME280;34578;0.000;0.000;2023-06-10T15:33:50;96141.69;;;20.49;60.58
48778;BME280;34578;0.000;0.000;2023-06-10T15:38:51;96150.38;;;20.37;62.30
48778;BME280;34578;0.000;0.000;2023-06-10T15:43:51;96145.34;;;20.34;61.72
48778;BME280;34578;0.000;0.000;2023-06-10T15:48:51;96141.72;;;20.46;62.62
48778;BME280;34578;0.000;0.000;2023-06-10T15:53:53;96128.81;;;20.58;61.62
48778;BME280;34578;0.000;0.000;2023-06-10T15:58:54;96131.50;;;20.49;62.87
48778;BME280;34578;0.000;0.000;2023-06-10T16:03:54;96133.34;;;20.40;61.56
48778;BME280;34578;0.000;0.000;2023-06-10T16:08:54;96138.59;;;20.33;61.19
48778;BME280;34578;0.000;0.000;2023-06-10T16:13:55;96131.53;;;20.46;64.05
48778;BME280;34578;0.000;0.000;2023-06-10T16:18:55;96135.50;;;20.62;61.64
48778;BME280;34578;0.000;0.000;2023-06-10T16:23:56;96132.19;;;20.57;61.01
48778;BME280;34578;0.000;0.000;2023-06-10T16:28:56;96116.53;;;20.33;60.74
48778;BME280;34578;0.000;0.000;2023-06-10T16:33:56;96135.41;;;20.19;61.51
48778;BME280;34578;0.000;0.000;2023-06-10T16:38:57;96132.00;;;20.20;61.63
48778;BME280;34578;0.000;0.000;2023-06-10T16:43:57;96149.34;;;20.46;61.11
48778;BME280;34578;0.000;0.000;2023-06-10T16:48:58;96146.88;;;20.43;60.60
48778;BME280;34578;0.000;0.000;2023-06-10T16:53:58;96153.88;;;20.30;60.69
48778;BME280;34578;0.000;0.000;2023-06-10T16:58:58;96158.22;;;20.22;61.05
48778;BME280;34578;0.000;0.000;2023-06-10T17:03:59;96152.41;;;20.17;61.12
48778;BME280;34578;0.000;0.000;2023-06-10T17:08:59;96153.72;;;20.38;60.75
48778;BME280;34578;0.000;0.000;2023-06-10T17:13:59;96160.28;;;20.51;59.58
48778;BME280;34578;0.000;0.000;2023-06-10T17:19:00;96163.88;;;20.40;60.07
48778;BME280;34578;0.000;0.000;2023-06-10T17:24:00;96171.59;;;20.34;60.49
48778;BME280;34578;0.000;0.000;2023-06-10T17:29:01;96172.53;;;20.29;60.59
48778;BME280;34578;0.000;0.000;2023-06-10T17:34:02;96175.88;;;20.32;62.42
48778;BME280;34578;0.000;0.000;2023-06-10T17:39:02;96181.41;;;20.55;63.35
48778;BME280;34578;0.000;0.000;2023-06-10T17:44:03;96186.53;;;20.52;61.68
48778;BME280;34578;0.000;0.000;2023-06-10T17:49:04;96183.25;;;20.45;62.49
48778;BME280;34578;0.000;0.000;2023-06-10T17:54:05;96185.91;;;20.39;60.99
48778;BME280;34578;0.000;0.000;2023-06-10T17:59:07;96197.06;;;20.33;61.23
48778;BME280;34578;0.000;0.000;2023-06-10T18:04:07;96203.47;;;20.53;61.93
48778;BME280;34578;0.000;0.000;2023-06-10T18:09:07;96200.81;;;20.60;60.93
48778;BME280;34578;0.000;0.000;2023-06-10T18:14:08;96206.09;;;20.48;61.65
48778;BME280;34578;0.000;0.000;2023-06-10T18:19:09;96213.88;;;20.39;61.47
48778;BME280;34578;0.000;0.000;2023-06-10T18:24:10;96214.84;;;20.33;61.16
48778;BME280;34578;0.000;0.000;2023-06-10T18:29:10;96232.59;;;20.36;62.07
48778;BME280;34578;0.000;0.000;2023-06-10T18:34:10;96241.59;;;20.56;61.20
48778;BME280;34578;0.000;0.000;2023-06-10T18:39:11;96238.16;;;20.58;60.73
48778;BME280;34578;0.000;0.000;2023-06-10T18:44:11;96236.66;;;20.45;61.94
48778;BME280;34578;0.000;0.000;2023-06-10T18:49:12;96246.06;;;20.40;61.10
48778;BME280;34578;0.000;0.000;2023-06-10T18:54:15;96254.53;;;20.42;61.60
48778;BME280;34578;0.000;0.000;2023-06-10T18:59:15;96250.25;;;20.44;64.70
48778;BME280;34578;0.000;0.000;2023-06-10T19:04:15;96253.28;;;20.67;64.96
48778;BME280;34578;0.000;0.000;2023-06-10T19:09:16;96260.06;;;20.65;62.41
48778;BME280;34578;0.000;0.000;2023-06-10T19:14:16;96268.78;;;20.52;62.11
48778;BME280;34578;0.000;0.000;2023-06-10T19:19:16;96268.03;;;20.44;61.77
48778;BME280;34578;0.000;0.000;2023-06-10T19:24:17;96264.75;;;20.38;62.59
48778;BME280;34578;0.000;0.000;2023-06-10T19:29:17;96273.25;;;20.37;62.06
48778;BME280;34578;0.000;0.000;2023-06-10T19:34:17;96276.28;;;20.60;62.22
48778;BME280;34578;0.000;0.000;2023-06-10T19:39:18;96289.78;;;20.65;61.19
48778;BME280;34578;0.000;0.000;2023-06-10T19:44:18;96288.31;;;20.50;61.58
48778;BME280;34578;0.000;0.000;2023-06-10T19:49:19;96301.09;;;20.46;61.31
48778;BME280;34578;0.000;0.000;2023-06-10T19:54:19;96310.34;;;20.48;62.60
48778;BME280;34578;0.000;0.000;2023-06-10T19:59:20;96316.34;;;20.44;61.98
48778;BME280;34578;0.000;0.000;2023-06-10T20:04:20;96322.91;;;20.60;61.92
48778;BME280;34578;0.000;0.000;2023-06-10T20:09:20;96317.75;;;20.66;60.92
48778;BME280;34578;0.000;0.000;2023-06-10T20:14:21;96326.41;;;20.53;61.91
48778;BME280;34578;0.000;0.000;2023-06-10T20:19:21;96330.75;;;20.45;61.57
48778;BME280;34578;0.000;0.000;2023-06-10T20:24:22;96331.69;;;20.40;61.27
48778;BME280;34578;0.000;0.000;2023-06-10T20:29:23;96334.31;;;20.34;61.10
48778;BME280;34578;0.000;0.000;2023-06-10T20:34:26;96335.78;;;20.50;61.83
48778;BME280;34578;0.000;0.000;2023-06-10T20:39:26;96341.47;;;20.65;60.49
48778;BME280;34578;0.000;0.000;2023-06-10T20:44:26;96348.44;;;20.54;61.17
48778;BME280;34578;0.000;0.000;2023-06-10T20:49:27;96346.88;;;20.44;61.06
48778;BME280;34578;0.000;0.000;2023-06-10T20:54:27;96360.53;;;20.38;60.68
48778;BME280;34578;0.000;0.000;2023-06-10T20:59:27;96361.41;;;20.35;60.88
48778;BME280;34578;0.000;0.000;2023-06-10T21:04:28;96367.28;;;20.42;62.44
48778;BME280;34578;0.000;0.000;2023-06-10T21:09:28;96362.75;;;20.60;60.89
48778;BME280;34578;0.000;0.000;2023-06-10T21:14:28;96362.81;;;20.58;60.44
48778;BME280;34578;0.000;0.000;2023-06-10T21:19:29;96363.81;;;20.47;60.95
48778;BME280;34578;0.000;0.000;2023-06-10T21:24:29;96372.34;;;20.42;60.73
48778;BME280;34578;0.000;0.000;2023-06-10T21:29:29;96374.97;;;20.36;60.79
48778;BME280;34578;0.000;0.000;2023-06-10T21:34:30;96366.53;;;20.34;60.47
48778;BME280;34578;0.000;0.000;2023-06-10T21:39:30;96361.19;;;20.51;61.27
48778;BME280;34578;0.000;0.000;2023-06-10T21:44:30;96360.16;;;20.64;60.09
48778;BME280;34578;0.000;0.000;2023-06-10T21:49:31;96362.88;;;20.54;60.61
48778;BME280;34578;0.000;0.000;2023-06-10T21:54:31;96371.44;;;20.47;61.07
48778;BME280;34578;0.000;0.000;2023-06-10T21:59:31;96374.03;;;20.42;60.65
48778;BME280;34578;0.000;0.000;2023-06-10T22:04:34;96374.91;;;20.38;60.72
48778;BME280;34578;0.000;0.000;2023-06-10T22:09:34;96373.25;;;20.38;61.15
48778;BME280;34578;0.000;0.000;2023-06-10T22:14:37;96362.81;;;20.57;61.34
48778;BME280;34578;0.000;0.000;2023-06-10T22:19:37;96365.28;;;20.61;59.89
48778;BME280;34578;0.000;0.000;2023-06-10T22:24:41;96380.72;;;20.49;60.90
48778;BME280;34578;0.000;0.000;2023-06-10T22:29:42;96373.16;;;20.43;60.67
48778;BME280;34578;0.000;0.000;2023-06-10T22:34:42;96370.69;;;20.38;60.33
48778;BME280;34578;0.000;0.000;2023-06-10T22:39:42;96367.34;;;20.36;60.56
48778;BME280;34578;0.000;0.000;2023-06-10T22:44:43;96375.72;;;20.43;62.51
48778;BME280;34578;0.000;0.000;2023-06-10T22:49:43;96358.53;;;20.60;60.49
48778;BME280;34578;0.000;0.000;2023-06-10T22:54:44;96358.53;;;20.57;60.21
48778;BME280;34578;0.000;0.000;2023-06-10T22:59:44;96367.22;;;20.44;60.40
48778;BME280;34578;0.000;0.000;2023-06-10T23:04:44;96365.63;;;20.38;60.15
48778;BME280;34578;0.000;0.000;2023-06-10T23:09:45;96369.06;;;20.34;60.13
48778;BME280;34578;0.000;0.000;2023-06-10T23:14:46;96362.31;;;20.33;60.08
48778;BME280;34578;0.000;0.000;2023-06-10T23:19:46;96368.06;;;20.45;61.88
48778;BME280;34578;0.000;0.000;2023-06-10T23:24:47;96372.91;;;20.61;60.63
48778;BME280;34578;0.000;0.000;2023-06-10T23:29:48;96372.16;;;20.55;60.47
48778;BME280;34578;0.000;0.000;2023-06-10T23:34:48;96384.16;;;20.45;60.35
48778;BME280;34578;0.000;0.000;2023-06-10T23:39:49;96381.69;;;20.39;60.27
48778;BME280;34578;0.000;0.000;2023-06-10T23:44:50;96385.13;;;20.36;60.32
48778;BME280;34578;0.000;0.000;2023-06-10T23:49:50;96380.94;;;20.32;60.19
48778;BME280;34578;0.000;0.000;2023-06-10T23:54:50;96385.91;;;20.40;61.20
48778;BME280;34578;0.000;0.000;2023-06-10T23:59:51;96379.69;;;20.61;59.94
